sensor_id;sensor_type;location;lat;lon;timestamp;temperature;humidity
15394;DHT22;7795;47.986;11.868;2022-12-16T00:02:07;4.50;84.30
15394;DHT22;7795;47.986;11.868;2022-12-16T00:04:32;4.60;84.40
15394;DHT22;7795;47.986;11.868;2022-12-16T00:06:58;4.50;84.40
15394;DHT22;7795;47.986;11.868;2022-12-16T00:09:24;4.50;84.30
15394;DHT22;7795;47.986;11.868;2022-12-16T00:11:49;4.50;84.30
15394;DHT22;7795;47.986;11.868;2022-12-16T00:14:15;4.50;84.40
15394;DHT22;7795;47.986;11.868;2022-12-16T00:16:42;4.50;84.40
15394;DHT22;7795;47.986;11.868;2022-12-16T00:19:08;4.50;84.40
15394;DHT22;7795;47.986;11.868;2022-12-16T00:21:34;4.50;84.40
15394;DHT22;7795;47.986;11.868;2022-12-16T00:23:59;4.50;84.50
15394;DHT22;7795;47.986;11.868;2022-12-16T00:26:25;4.60;84.60
15394;DHT22;7795;47.986;11.868;2022-12-16T00:28:51;4.60;84.60
15394;DHT22;7795;47.986;11.868;2022-12-16T00:31:16;4.60;84.50
15394;DHT22;7795;47.986;11.868;2022-12-16T00:33:43;4.60;84.50
15394;DHT22;7795;47.986;11.868;2022-12-16T00:36:10;4.60;84.40
15394;DHT22;7795;47.986;11.868;2022-12-16T00:38:35;4.60;84.40
15394;DHT22;7795;47.986;11.868;2022-12-16T00:41:02;4.60;84.40
15394;DHT22;7795;47.986;11.868;2022-12-16T00:43:28;4.60;84.40
15394;DHT22;7795;47.986;11.868;2022-12-16T00:45:54;4.60;84.40
15394;DHT22;7795;47.986;11.868;2022-12-16T00:48:20;4.60;84.30
15394;DHT22;7795;47.986;11.868;2022-12-16T00:50:50;4.60;85.10
15394;DHT22;7795;47.986;11.868;2022-12-16T00:53:16;4.60;84.30
15394;DHT22;7795;47.986;11.868;2022-12-16T00:55:42;4.60;84.30
15394;DHT22;7795;47.986;11.868;2022-12-16T00:58:08;4.60;84.40
15394;DHT22;7795;47.986;11.868;2022-12-16T01:00:34;4.60;84.40
15394;DHT22;7795;47.986;11.868;2022-12-16T01:02:59;4.60;84.40
15394;DHT22;7795;47.986;11.868;2022-12-16T01:05:25;4.60;84.40
15394;DHT22;7795;47.986;11.868;2022-12-16T01:07:53;4.60;84.40
15394;DHT22;7795;47.986;11.868;2022-12-16T01:10:19;4.60;84.40
15394;DHT22;7795;47.986;11.868;2022-12-16T01:12:45;4.60;84.50
15394;DHT22;7795;47.986;11.868;2022-12-16T01:15:11;4.60;84.50
15394;DHT22;7795;47.986;11.868;2022-12-16T01:17:37;4.60;84.40
15394;DHT22;7795;47.986;11.868;2022-12-16T01:20:04;4.60;84.40
15394;DHT22;7795;47.986;11.868;2022-12-16T01:22:31;4.60;84.40
15394;DHT22;7795;47.986;11.868;2022-12-16T01:24:58;4.60;84.40
15394;DHT22;7795;47.986;11.868;2022-12-16T01:27:25;4.60;84.50
15394;DHT22;7795;47.986;11.868;2022-12-16T01:29:51;4.60;84.40
15394;DHT22;7795;47.986;11.868;2022-12-16T01:32:17;4.60;84.60
15394;DHT22;7795;47.986;11.868;2022-12-16T01:34:42;4.60;84.70
15394;DHT22;7795;47.986;11.868;2022-12-16T01:37:10;4.60;84.70
15394;DHT22;7795;47.986;11.868;2022-12-16T01:39:36;4.60;84.70
15394;DHT22;7795;47.986;11.868;2022-12-16T01:42:04;4.60;84.60
15394;DHT22;7795;47.986;11.868;2022-12-16T01:44:33;4.60;84.60
15394;DHT22;7795;47.986;11.868;2022-12-16T01:47:01;4.60;84.50
15394;DHT22;7795;47.986;11.868;2022-12-16T01:49:34;4.60;84.60
15394;DHT22;7795;47.986;11.868;2022-12-16T01:52:03;4.60;84.60
15394;DHT22;7795;47.986;11.868;2022-12-16T01:54:33;4.70;84.60
15394;DHT22;7795;47.986;11.868;2022-12-16T01:57:05;4.70;84.60
15394;DHT22;7795;47.986;11.868;2022-12-16T01:59:33;4.70;84.70
15394;DHT22;7795;47.986;11.868;2022-12-16T02:02:01;4.70;84.70
15394;DHT22;7795;47.986;11.868;2022-12-16T02:04:27;4.70;84.60
15394;DHT22;7795;47.986;11.868;2022-12-16T02:06:53;4.70;84.60
15394;DHT22;7795;47.986;11.868;2022-12-16T02:17:29;4.70;84.70
15394;DHT22;7795;47.986;11.868;2022-12-16T02:23:08;4.80;84.70
15394;DHT22;7795;47.986;11.868;2022-12-16T02:26:09;4.80;84.70
15394;DHT22;7795;47.986;11.868;2022-12-16T02:29:02;4.80;84.70
15394;DHT22;7795;47.986;11.868;2022-12-16T02:31:37;4.80;84.70
15394;DHT22;7795;47.986;11.868;2022-12-16T02:34:12;4.80;84.60
15394;DHT22;7795;47.986;11.868;2022-12-16T02:36:47;4.80;84.60
15394;DHT22;7795;47.986;11.868;2022-12-16T02:39:19;4.90;84.70
15394;DHT22;7795;47.986;11.868;2022-12-16T02:41:49;4.80;84.60
15394;DHT22;7795;47.986;11.868;2022-12-16T02:44:18;4.90;84.70
15394;DHT22;7795;47.986;11.868;2022-12-16T02:46:53;4.90;84.60
15394;DHT22;7795;47.986;11.868;2022-12-16T02:49:46;4.90;84.60
15394;DHT22;7795;47.986;11.868;2022-12-16T02:52:13;4.90;84.60
15394;DHT22;7795;47.986;11.868;2022-12-16T02:54:39;4.90;84.50
15394;DHT22;7795;47.986;11.868;2022-12-16T02:57:13;4.90;84.50
15394;DHT22;7795;47.986;11.868;2022-12-16T02:59:46;4.90;84.60
15394;DHT22;7795;47.986;11.868;2022-12-16T03:02:21;4.90;84.50
15394;DHT22;7795;47.986;11.868;2022-12-16T03:04:51;4.90;84.40
15394;DHT22;7795;47.986;11.868;2022-12-16T03:07:21;4.90;84.40
15394;DHT22;7795;47.986;11.868;2022-12-16T03:09:50;4.90;84.50
15394;DHT22;7795;47.986;11.868;2022-12-16T03:12:18;4.90;84.40
15394;DHT22;7795;47.986;11.868;2022-12-16T03:14:48;4.90;84.40
15394;DHT22;7795;47.986;11.868;2022-12-16T03:17:15;5.00;84.40
15394;DHT22;7795;47.986;11.868;2022-12-16T03:19:49;5.00;84.40
15394;DHT22;7795;47.986;11.868;2022-12-16T03:22:20;5.00;84.40
15394;DHT22;7795;47.986;11.868;2022-12-16T03:24:47;5.00;84.30
15394;DHT22;7795;47.986;11.868;2022-12-16T03:27:19;5.00;84.20
15394;DHT22;7795;47.986;11.868;2022-12-16T03:29:52;4.90;84.20
15394;DHT22;7795;47.986;11.868;2022-12-16T03:32:21;4.90;84.10
15394;DHT22;7795;47.986;11.868;2022-12-16T03:34:52;4.90;84.10
15394;DHT22;7795;47.986;11.868;2022-12-16T03:37:22;4.90;84.10
15394;DHT22;7795;47.986;11.868;2022-12-16T03:39:52;4.90;84.20
15394;DHT22;7795;47.986;11.868;2022-12-16T03:42:19;4.90;84.30
15394;DHT22;7795;47.986;11.868;2022-12-16T03:44:45;4.90;84.30
15394;DHT22;7795;47.986;11.868;2022-12-16T03:47:12;4.90;84.30
15394;DHT22;7795;47.986;11.868;2022-12-16T03:49:38;4.90;84.30
15394;DHT22;7795;47.986;11.868;2022-12-16T03:52:05;4.90;84.30
15394;DHT22;7795;47.986;11.868;2022-12-16T03:54:31;4.90;84.30
15394;DHT22;7795;47.986;11.868;2022-12-16T03:56:59;4.90;84.30
15394;DHT22;7795;47.986;11.868;2022-12-16T03:59:25;4.90;84.30
15394;DHT22;7795;47.986;11.868;2022-12-16T04:01:51;4.90;84.30
15394;DHT22;7795;47.986;11.868;2022-12-16T04:04:17;4.90;84.20
15394;DHT22;7795;47.986;11.868;2022-12-16T04:06:43;4.90;84.30
15394;DHT22;7795;47.986;11.868;2022-12-16T04:09:10;4.90;84.30
15394;DHT22;7795;47.986;11.868;2022-12-16T04:11:36;4.90;84.20
15394;DHT22;7795;47.986;11.868;2022-12-16T04:14:20;4.90;84.20
15394;DHT22;7795;47.986;11.868;2022-12-16T04:17:05;4.90;84.10
15394;DHT22;7795;47.986;11.868;2022-12-16T04:19:50;4.90;84.00
15394;DHT22;7795;47.986;11.868;2022-12-16T04:22:36;4.90;84.00
15394;DHT22;7795;47.986;11.868;2022-12-16T04:25:24;4.90;84.10
15394;DHT22;7795;47.986;11.868;2022-12-16T04:27:52;4.90;84.10
15394;DHT22;7795;47.986;11.868;2022-12-16T04:30:19;4.90;84.10
15394;DHT22;7795;47.986;11.868;2022-12-16T04:32:45;4.90;84.00
15394;DHT22;7795;47.986;11.868;2022-12-16T04:35:30;4.90;84.00
15394;DHT22;7795;47.986;11.868;2022-12-16T04:38:14;4.90;84.00
15394;DHT22;7795;47.986;11.868;2022-12-16T04:41:00;4.90;84.00
15394;DHT22;7795;47.986;11.868;2022-12-16T04:43:44;4.90;84.00
15394;DHT22;7795;47.986;11.868;2022-12-16T04:46:28;4.80;83.90
15394;DHT22;7795;47.986;11.868;2022-12-16T04:49:12;4.80;83.90
15394;DHT22;7795;47.986;11.868;2022-12-16T04:51:57;4.80;83.80
15394;DHT22;7795;47.986;11.868;2022-12-16T04:54:41;4.80;83.70
15394;DHT22;7795;47.986;11.868;2022-12-16T04:57:26;4.80;84.50
15394;DHT22;7795;47.986;11.868;2022-12-16T05:00:12;4.70;83.80
15394;DHT22;7795;47.986;11.868;2022-12-16T05:02:57;4.70;83.90
15394;DHT22;7795;47.986;11.868;2022-12-16T05:05:41;4.70;84.00
15394;DHT22;7795;47.986;11.868;2022-12-16T05:08:26;4.70;83.80
15394;DHT22;7795;47.986;11.868;2022-12-16T05:11:10;4.60;83.80
15394;DHT22;7795;47.986;11.868;2022-12-16T05:13:56;4.60;83.90
15394;DHT22;7795;47.986;11.868;2022-12-16T05:16:40;4.60;84.00
15394;DHT22;7795;47.986;11.868;2022-12-16T05:19:24;4.60;84.10
15394;DHT22;7795;47.986;11.868;2022-12-16T05:22:08;4.60;84.10
15394;DHT22;7795;47.986;11.868;2022-12-16T05:24:53;4.60;84.00
15394;DHT22;7795;47.986;11.868;2022-12-16T05:27:37;4.50;83.80
15394;DHT22;7795;47.986;11.868;2022-12-16T05:30:22;4.50;83.80
15394;DHT22;7795;47.986;11.868;2022-12-16T05:33:07;4.50;83.80
15394;DHT22;7795;47.986;11.868;2022-12-16T05:35:51;4.40;83.80
15394;DHT22;7795;47.986;11.868;2022-12-16T05:38:35;4.40;83.80
15394;DHT22;7795;47.986;11.868;2022-12-16T05:41:19;4.40;83.80
15394;DHT22;7795;47.986;11.868;2022-12-16T05:44:04;4.40;83.80
15394;DHT22;7795;47.986;11.868;2022-12-16T05:46:50;4.30;83.80
15394;DHT22;7795;47.986;11.868;2022-12-16T05:49:34;4.30;83.60
15394;DHT22;7795;47.986;11.868;2022-12-16T05:52:19;4.30;83.70
15394;DHT22;7795;47.986;11.868;2022-12-16T05:55:04;4.20;83.60
15394;DHT22;7795;47.986;11.868;2022-12-16T05:57:49;4.20;83.60
15394;DHT22;7795;47.986;11.868;2022-12-16T06:00:33;4.20;83.60
15394;DHT22;7795;47.986;11.868;2022-12-16T06:03:18;4.10;83.50
15394;DHT22;7795;47.986;11.868;2022-12-16T06:06:03;4.10;83.60
15394;DHT22;7795;47.986;11.868;2022-12-16T06:08:47;4.10;83.70
15394;DHT22;7795;47.986;11.868;2022-12-16T06:11:32;4.10;83.80
15394;DHT22;7795;47.986;11.868;2022-12-16T06:14:16;4.10;83.80
15394;DHT22;7795;47.986;11.868;2022-12-16T06:17:01;4.10;83.80
15394;DHT22;7795;47.986;11.868;2022-12-16T06:19:47;4.00;83.80
15394;DHT22;7795;47.986;11.868;2022-12-16T06:22:33;4.00;83.60
15394;DHT22;7795;47.986;11.868;2022-12-16T06:25:17;4.00;83.60
15394;DHT22;7795;47.986;11.868;2022-12-16T06:28:02;4.00;83.60
15394;DHT22;7795;47.986;11.868;2022-12-16T06:30:46;4.00;83.60
15394;DHT22;7795;47.986;11.868;2022-12-16T06:33:30;4.00;83.70
15394;DHT22;7795;47.986;11.868;2022-12-16T06:36:16;3.90;83.70
15394;DHT22;7795;47.986;11.868;2022-12-16T06:39:01;3.90;83.80
15394;DHT22;7795;47.986;11.868;2022-12-16T06:41:46;3.90;83.90
15394;DHT22;7795;47.986;11.868;2022-12-16T06:44:31;3.90;83.90
15394;DHT22;7795;47.986;11.868;2022-12-16T06:47:17;3.80;83.80
15394;DHT22;7795;47.986;11.868;2022-12-16T06:50:02;3.80;83.90
15394;DHT22;7795;47.986;11.868;2022-12-16T06:52:48;3.80;83.90
15394;DHT22;7795;47.986;11.868;2022-12-16T06:55:33;3.80;84.00
15394;DHT22;7795;47.986;11.868;2022-12-16T06:58:18;3.80;84.10
15394;DHT22;7795;47.986;11.868;2022-12-16T07:01:02;3.80;84.20
15394;DHT22;7795;47.986;11.868;2022-12-16T07:03:46;3.80;84.20
15394;DHT22;7795;47.986;11.868;2022-12-16T07:06:31;3.80;84.20
15394;DHT22;7795;47.986;11.868;2022-12-16T07:09:16;3.80;84.10
15394;DHT22;7795;47.986;11.868;2022-12-16T07:12:02;3.80;84.20
15394;DHT22;7795;47.986;11.868;2022-12-16T07:14:46;3.80;84.20
15394;DHT22;7795;47.986;11.868;2022-12-16T07:17:30;3.80;84.10
15394;DHT22;7795;47.986;11.868;2022-12-16T07:20:14;3.80;84.10
15394;DHT22;7795;47.986;11.868;2022-12-16T07:22:59;3.80;84.20
15394;DHT22;7795;47.986;11.868;2022-12-16T07:25:48;3.80;84.20
15394;DHT22;7795;47.986;11.868;2022-12-16T07:28:32;3.90;84.20
15394;DHT22;7795;47.986;11.868;2022-12-16T07:31:17;3.80;84.20
15394;DHT22;7795;47.986;11.868;2022-12-16T07:34:01;3.80;84.20
15394;DHT22;7795;47.986;11.868;2022-12-16T07:36:45;3.90;84.20
15394;DHT22;7795;47.986;11.868;2022-12-16T07:39:29;3.90;84.20
15394;DHT22;7795;47.986;11.868;2022-12-16T07:42:15;3.90;84.10
15394;DHT22;7795;47.986;11.868;2022-12-16T07:44:59;3.90;84.00
15394;DHT22;7795;47.986;11.868;2022-12-16T07:47:48;3.90;84.00
15394;DHT22;7795;47.986;11.868;2022-12-16T07:50:33;3.90;83.90
15394;DHT22;7795;47.986;11.868;2022-12-16T07:53:18;3.80;83.80
15394;DHT22;7795;47.986;11.868;2022-12-16T07:56:02;3.80;83.80
15394;DHT22;7795;47.986;11.868;2022-12-16T07:58:48;3.80;83.90
15394;DHT22;7795;47.986;11.868;2022-12-16T08:01:32;3.80;83.90
15394;DHT22;7795;47.986;11.868;2022-12-16T08:04:16;3.80;84.00
15394;DHT22;7795;47.986;11.868;2022-12-16T08:07:01;3.90;84.00
15394;DHT22;7795;47.986;11.868;2022-12-16T08:09:46;3.90;84.00
15394;DHT22;7795;47.986;11.868;2022-12-16T08:12:34;3.90;83.90
15394;DHT22;7795;47.986;11.868;2022-12-16T08:15:20;3.90;83.90
15394;DHT22;7795;47.986;11.868;2022-12-16T08:18:05;3.90;83.90
15394;DHT22;7795;47.986;11.868;2022-12-16T08:20:49;3.90;83.90
15394;DHT22;7795;47.986;11.868;2022-12-16T08:23:34;3.90;83.90
15394;DHT22;7795;47.986;11.868;2022-12-16T08:26:18;3.90;83.90
15394;DHT22;7795;47.986;11.868;2022-12-16T08:29:03;3.90;83.90
15394;DHT22;7795;47.986;11.868;2022-12-16T08:31:48;3.90;83.90
15394;DHT22;7795;47.986;11.868;2022-12-16T08:34:33;4.00;83.90
15394;DHT22;7795;47.986;11.868;2022-12-16T08:37:17;4.00;83.80
15394;DHT22;7795;47.986;11.868;2022-12-16T08:40:01;4.00;83.70
15394;DHT22;7795;47.986;11.868;2022-12-16T08:42:46;4.00;83.60
15394;DHT22;7795;47.986;11.868;2022-12-16T08:45:30;4.00;83.50
15394;DHT22;7795;47.986;11.868;2022-12-16T08:48:16;4.00;83.50
15394;DHT22;7795;47.986;11.868;2022-12-16T08:51:00;3.90;83.40
15394;DHT22;7795;47.986;11.868;2022-12-16T08:53:45;3.90;83.30
15394;DHT22;7795;47.986;11.868;2022-12-16T08:56:29;3.90;83.20
15394;DHT22;7795;47.986;11.868;2022-12-16T08:59:21;3.90;83.20
15394;DHT22;7795;47.986;11.868;2022-12-16T09:02:05;3.90;83.30
15394;DHT22;7795;47.986;11.868;2022-12-16T09:04:51;3.90;83.40
15394;DHT22;7795;47.986;11.868;2022-12-16T09:07:35;3.90;83.40
15394;DHT22;7795;47.986;11.868;2022-12-16T09:10:19;3.90;83.40
15394;DHT22;7795;47.986;11.868;2022-12-16T09:13:06;3.90;83.50
15394;DHT22;7795;47.986;11.868;2022-12-16T09:15:51;3.90;83.30
15394;DHT22;7795;47.986;11.868;2022-12-16T09:18:35;3.90;83.30
15394;DHT22;7795;47.986;11.868;2022-12-16T09:21:21;3.90;83.20
15394;DHT22;7795;47.986;11.868;2022-12-16T09:24:06;3.90;83.20
15394;DHT22;7795;47.986;11.868;2022-12-16T09:26:50;3.90;83.10
15394;DHT22;7795;47.986;11.868;2022-12-16T09:29:34;3.80;83.00
15394;DHT22;7795;47.986;11.868;2022-12-16T09:32:19;3.80;83.00
15394;DHT22;7795;47.986;11.868;2022-12-16T09:35:03;3.80;83.10
15394;DHT22;7795;47.986;11.868;2022-12-16T09:37:49;3.80;83.20
15394;DHT22;7795;47.986;11.868;2022-12-16T09:40:35;3.90;83.20
15394;DHT22;7795;47.986;11.868;2022-12-16T09:43:40;3.90;83.10
15394;DHT22;7795;47.986;11.868;2022-12-16T09:46:49;3.90;83.00
15394;DHT22;7795;47.986;11.868;2022-12-16T09:49:44;3.90;83.00
15394;DHT22;7795;47.986;11.868;2022-12-16T09:52:33;3.90;82.90
15394;DHT22;7795;47.986;11.868;2022-12-16T09:55:25;3.90;82.90
15394;DHT22;7795;47.986;11.868;2022-12-16T09:58:12;3.90;82.90
15394;DHT22;7795;47.986;11.868;2022-12-16T10:00:59;3.90;83.00
15394;DHT22;7795;47.986;11.868;2022-12-16T10:03:44;3.90;83.00
15394;DHT22;7795;47.986;11.868;2022-12-16T10:06:36;3.90;83.00
15394;DHT22;7795;47.986;11.868;2022-12-16T10:09:27;3.90;83.00
15394;DHT22;7795;47.986;11.868;2022-12-16T10:12:20;3.90;82.90
15394;DHT22;7795;47.986;11.868;2022-12-16T10:15:17;3.90;82.80
15394;DHT22;7795;47.986;11.868;2022-12-16T10:18:09;3.90;82.80
15394;DHT22;7795;47.986;11.868;2022-12-16T10:20:55;3.90;82.80
15394;DHT22;7795;47.986;11.868;2022-12-16T10:23:45;3.80;82.80
15394;DHT22;7795;47.986;11.868;2022-12-16T10:26:39;3.90;82.90
15394;DHT22;7795;47.986;11.868;2022-12-16T10:29:29;3.90;82.70
15394;DHT22;7795;47.986;11.868;2022-12-16T10:32:18;3.90;82.70
15394;DHT22;7795;47.986;11.868;2022-12-16T10:35:16;3.90;82.60
15394;DHT22;7795;47.986;11.868;2022-12-16T10:38:01;3.90;82.60
15394;DHT22;7795;47.986;11.868;2022-12-16T10:40:48;3.90;82.70
15394;DHT22;7795;47.986;11.868;2022-12-16T10:43:36;3.80;82.70
15394;DHT22;7795;47.986;11.868;2022-12-16T10:46:25;3.90;82.60
15394;DHT22;7795;47.986;11.868;2022-12-16T10:49:14;3.90;82.80
15394;DHT22;7795;47.986;11.868;2022-12-16T10:51:59;3.90;82.80
15394;DHT22;7795;47.986;11.868;2022-12-16T10:54:48;3.90;82.80
15394;DHT22;7795;47.986;11.868;2022-12-16T10:57:41;3.90;82.80
15394;DHT22;7795;47.986;11.868;2022-12-16T11:00:41;3.90;82.50
15394;DHT22;7795;47.986;11.868;2022-12-16T11:03:29;3.90;82.40
15394;DHT22;7795;47.986;11.868;2022-12-16T11:06:19;3.90;82.60
15394;DHT22;7795;47.986;11.868;2022-12-16T11:09:24;4.00;82.70
15394;DHT22;7795;47.986;11.868;2022-12-16T11:12:16;4.00;82.70
15394;DHT22;7795;47.986;11.868;2022-12-16T11:15:17;4.00;82.80
15394;DHT22;7795;47.986;11.868;2022-12-16T11:18:04;4.00;82.80
15394;DHT22;7795;47.986;11.868;2022-12-16T11:21:07;4.00;82.80
15394;DHT22;7795;47.986;11.868;2022-12-16T11:24:05;4.00;82.70
15394;DHT22;7795;47.986;11.868;2022-12-16T11:26:53;4.10;82.80
15394;DHT22;7795;47.986;11.868;2022-12-16T11:29:48;4.10;82.80
15394;DHT22;7795;47.986;11.868;2022-12-16T11:32:34;4.10;82.50
15394;DHT22;7795;47.986;11.868;2022-12-16T11:35:26;4.10;83.20
15394;DHT22;7795;47.986;11.868;2022-12-16T11:38:19;4.10;82.40
15394;DHT22;7795;47.986;11.868;2022-12-16T11:41:06;4.10;82.30
15394;DHT22;7795;47.986;11.868;2022-12-16T11:43:52;4.10;82.30
15394;DHT22;7795;47.986;11.868;2022-12-16T11:46:37;4.10;82.30
15394;DHT22;7795;47.986;11.868;2022-12-16T11:49:25;4.10;82.30
15394;DHT22;7795;47.986;11.868;2022-12-16T11:52:13;4.10;82.20
15394;DHT22;7795;47.986;11.868;2022-12-16T11:55:10;4.10;83.00
15394;DHT22;7795;47.986;11.868;2022-12-16T11:58:01;4.00;82.20
15394;DHT22;7795;47.986;11.868;2022-12-16T12:00:52;4.00;82.20
15394;DHT22;7795;47.986;11.868;2022-12-16T12:03:42;4.00;82.20
15394;DHT22;7795;47.986;11.868;2022-12-16T12:06:30;4.00;82.20
15394;DHT22;7795;47.986;11.868;2022-12-16T12:09:18;4.00;82.20
15394;DHT22;7795;47.986;11.868;2022-12-16T12:12:13;4.00;82.20
15394;DHT22;7795;47.986;11.868;2022-12-16T12:15:06;4.00;82.30
15394;DHT22;7795;47.986;11.868;2022-12-16T12:17:59;4.00;82.20
15394;DHT22;7795;47.986;11.868;2022-12-16T12:20:55;4.00;82.10
15394;DHT22;7795;47.986;11.868;2022-12-16T12:23:48;4.00;82.90
15394;DHT22;7795;47.986;11.868;2022-12-16T12:26:36;4.00;82.20
15394;DHT22;7795;47.986;11.868;2022-12-16T12:29:31;4.00;82.20
15394;DHT22;7795;47.986;11.868;2022-12-16T12:32:23;3.90;82.10
15394;DHT22;7795;47.986;11.868;2022-12-16T12:35:20;3.90;82.10
15394;DHT22;7795;47.986;11.868;2022-12-16T12:38:11;3.90;82.10
15394;DHT22;7795;47.986;11.868;2022-12-16T12:41:05;3.90;82.10
15394;DHT22;7795;47.986;11.868;2022-12-16T12:44:00;3.90;82.10
15394;DHT22;7795;47.986;11.868;2022-12-16T12:46:51;3.90;82.10
15394;DHT22;7795;47.986;11.868;2022-12-16T12:49:42;3.90;82.10
15394;DHT22;7795;47.986;11.868;2022-12-16T12:52:37;3.90;82.00
15394;DHT22;7795;47.986;11.868;2022-12-16T12:55:34;3.90;82.00
15394;DHT22;7795;47.986;11.868;2022-12-16T12:58:23;3.90;82.00
15394;DHT22;7795;47.986;11.868;2022-12-16T13:01:08;3.90;82.00
15394;DHT22;7795;47.986;11.868;2022-12-16T13:04:17;3.90;82.00
15394;DHT22;7795;47.986;11.868;2022-12-16T13:07:05;3.90;82.00
15394;DHT22;7795;47.986;11.868;2022-12-16T13:10:11;3.90;82.10
15394;DHT22;7795;47.986;11.868;2022-12-16T13:13:30;3.90;82.20
15394;DHT22;7795;47.986;11.868;2022-12-16T13:19:52;3.90;82.20
15394;DHT22;7795;47.986;11.868;2022-12-16T13:22:37;3.90;82.20
15394;DHT22;7795;47.986;11.868;2022-12-16T13:25:37;3.90;82.20
15394;DHT22;7795;47.986;11.868;2022-12-16T13:28:28;3.90;82.10
15394;DHT22;7795;47.986;11.868;2022-12-16T13:31:14;3.90;82.00
15394;DHT22;7795;47.986;11.868;2022-12-16T13:34:04;3.90;82.10
15394;DHT22;7795;47.986;11.868;2022-12-16T13:36:55;3.90;82.00
15394;DHT22;7795;47.986;11.868;2022-12-16T13:39:42;3.90;81.80
15394;DHT22;7795;47.986;11.868;2022-12-16T13:42:47;3.90;81.70
15394;DHT22;7795;47.986;11.868;2022-12-16T13:45:34;3.90;81.90
15394;DHT22;7795;47.986;11.868;2022-12-16T13:48:32;3.90;82.00
15394;DHT22;7795;47.986;11.868;2022-12-16T13:55:12;3.90;81.70
15394;DHT22;7795;47.986;11.868;2022-12-16T13:58:02;3.90;81.70
15394;DHT22;7795;47.986;11.868;2022-12-16T14:00:56;3.90;81.70
15394;DHT22;7795;47.986;11.868;2022-12-16T14:03:45;3.90;81.70
15394;DHT22;7795;47.986;11.868;2022-12-16T14:06:31;3.80;81.70
15394;DHT22;7795;47.986;11.868;2022-12-16T14:09:33;3.80;81.70
15394;DHT22;7795;47.986;11.868;2022-12-16T14:15:53;3.80;81.70
15394;DHT22;7795;47.986;11.868;2022-12-16T14:18:48;3.80;81.70
15394;DHT22;7795;47.986;11.868;2022-12-16T14:21:41;3.70;81.70
15394;DHT22;7795;47.986;11.868;2022-12-16T14:24:28;3.70;81.60
15394;DHT22;7795;47.986;11.868;2022-12-16T14:27:15;3.60;81.60
15394;DHT22;7795;47.986;11.868;2022-12-16T14:30:01;3.60;81.70
15394;DHT22;7795;47.986;11.868;2022-12-16T14:32:47;3.60;81.80
15394;DHT22;7795;47.986;11.868;2022-12-16T14:35:31;3.60;81.70
15394;DHT22;7795;47.986;11.868;2022-12-16T14:38:27;3.50;81.80
15394;DHT22;7795;47.986;11.868;2022-12-16T14:41:15;3.50;81.80
15394;DHT22;7795;47.986;11.868;2022-12-16T14:44:02;3.50;81.90
15394;DHT22;7795;47.986;11.868;2022-12-16T14:46:49;3.50;81.90
15394;DHT22;7795;47.986;11.868;2022-12-16T14:49:35;3.50;81.90
15394;DHT22;7795;47.986;11.868;2022-12-16T14:52:22;3.50;81.90
15394;DHT22;7795;47.986;11.868;2022-12-16T14:55:11;3.40;82.00
15394;DHT22;7795;47.986;11.868;2022-12-16T14:58:08;3.40;82.00
15394;DHT22;7795;47.986;11.868;2022-12-16T15:00:56;3.40;82.80
15394;DHT22;7795;47.986;11.868;2022-12-16T15:03:54;3.40;82.10
15394;DHT22;7795;47.986;11.868;2022-12-16T15:06:42;3.40;82.10
15394;DHT22;7795;47.986;11.868;2022-12-16T15:09:29;3.40;82.90
15394;DHT22;7795;47.986;11.868;2022-12-16T15:12:18;3.40;82.20
15394;DHT22;7795;47.986;11.868;2022-12-16T15:15:04;3.40;82.30
15394;DHT22;7795;47.986;11.868;2022-12-16T15:17:51;3.40;82.30
15394;DHT22;7795;47.986;11.868;2022-12-16T15:20:40;3.40;82.30
15394;DHT22;7795;47.986;11.868;2022-12-16T15:23:30;3.40;82.40
15394;DHT22;7795;47.986;11.868;2022-12-16T15:26:17;3.40;82.30
15394;DHT22;7795;47.986;11.868;2022-12-16T15:29:01;3.30;82.30
15394;DHT22;7795;47.986;11.868;2022-12-16T15:31:45;3.30;82.30
15394;DHT22;7795;47.986;11.868;2022-12-16T15:34:31;3.30;82.30
15394;DHT22;7795;47.986;11.868;2022-12-16T15:37:19;3.30;82.30
15394;DHT22;7795;47.986;11.868;2022-12-16T15:40:18;3.30;82.30
15394;DHT22;7795;47.986;11.868;2022-12-16T15:43:03;3.30;82.30
15394;DHT22;7795;47.986;11.868;2022-12-16T15:45:48;3.30;82.20
15394;DHT22;7795;47.986;11.868;2022-12-16T15:48:40;3.30;82.10
15394;DHT22;7795;47.986;11.868;2022-12-16T15:51:29;3.20;82.00
15394;DHT22;7795;47.986;11.868;2022-12-16T15:54:16;3.20;81.90
15394;DHT22;7795;47.986;11.868;2022-12-16T15:57:02;3.10;81.80
15394;DHT22;7795;47.986;11.868;2022-12-16T16:00:18;3.10;81.70
15394;DHT22;7795;47.986;11.868;2022-12-16T16:03:03;3.10;81.70
15394;DHT22;7795;47.986;11.868;2022-12-16T16:05:48;3.00;81.90
15394;DHT22;7795;47.986;11.868;2022-12-16T16:08:32;3.00;82.00
15394;DHT22;7795;47.986;11.868;2022-12-16T16:11:17;3.00;82.10
15394;DHT22;7795;47.986;11.868;2022-12-16T16:14:02;3.00;82.10
15394;DHT22;7795;47.986;11.868;2022-12-16T16:16:47;2.90;81.90
15394;DHT22;7795;47.986;11.868;2022-12-16T16:19:31;2.90;81.90
15394;DHT22;7795;47.986;11.868;2022-12-16T16:22:16;2.90;81.90
15394;DHT22;7795;47.986;11.868;2022-12-16T16:25:01;2.90;82.00
15394;DHT22;7795;47.986;11.868;2022-12-16T16:27:46;2.80;82.00
15394;DHT22;7795;47.986;11.868;2022-12-16T16:30:32;2.80;82.00
15394;DHT22;7795;47.986;11.868;2022-12-16T16:33:16;2.80;82.00
15394;DHT22;7795;47.986;11.868;2022-12-16T16:36:00;2.70;81.90
15394;DHT22;7795;47.986;11.868;2022-12-16T16:38:44;2.70;82.00
15394;DHT22;7795;47.986;11.868;2022-12-16T16:41:28;2.70;82.00
15394;DHT22;7795;47.986;11.868;2022-12-16T16:44:13;2.70;82.20
15394;DHT22;7795;47.986;11.868;2022-12-16T16:46:59;2.70;82.20
15394;DHT22;7795;47.986;11.868;2022-12-16T16:49:45;2.60;82.00
15394;DHT22;7795;47.986;11.868;2022-12-16T16:52:31;2.60;82.20
15394;DHT22;7795;47.986;11.868;2022-12-16T16:55:17;2.60;82.20
15394;DHT22;7795;47.986;11.868;2022-12-16T16:58:05;2.60;82.20
15394;DHT22;7795;47.986;11.868;2022-12-16T17:00:50;2.60;82.30
15394;DHT22;7795;47.986;11.868;2022-12-16T17:03:36;2.60;82.30
15394;DHT22;7795;47.986;11.868;2022-12-16T17:06:20;2.60;82.30
15394;DHT22;7795;47.986;11.868;2022-12-16T17:09:05;2.50;83.00
15394;DHT22;7795;47.986;11.868;2022-12-16T17:11:49;2.50;82.30
15394;DHT22;7795;47.986;11.868;2022-12-16T17:14:33;2.50;82.30
15394;DHT22;7795;47.986;11.868;2022-12-16T17:17:18;2.50;82.10
15394;DHT22;7795;47.986;11.868;2022-12-16T17:20:04;2.50;81.90
15394;DHT22;7795;47.986;11.868;2022-12-16T17:22:48;2.50;81.90
15394;DHT22;7795;47.986;11.868;2022-12-16T17:25:33;2.40;81.80
15394;DHT22;7795;47.986;11.868;2022-12-16T17:28:18;2.40;81.90
15394;DHT22;7795;47.986;11.868;2022-12-16T17:31:02;2.40;82.80
15394;DHT22;7795;47.986;11.868;2022-12-16T17:33:47;2.40;82.20
15394;DHT22;7795;47.986;11.868;2022-12-16T17:36:32;2.40;82.20
15394;DHT22;7795;47.986;11.868;2022-12-16T17:39:17;2.40;82.30
15394;DHT22;7795;47.986;11.868;2022-12-16T17:42:01;2.40;83.00
15394;DHT22;7795;47.986;11.868;2022-12-16T17:44:45;2.40;82.30
15394;DHT22;7795;47.986;11.868;2022-12-16T17:47:30;2.40;82.20